sensor_id;sensor_type;location;lat;lon;timestamp;pressure;altitude;pressure_sealevel;temperature;humidity
70009;BME280;59542;37.950;-122.338;2023-07-20T00:01:27;101405.94;;;19.65;57.80
70009;BME280;59542;37.950;-122.338;2023-07-20T00:03:53;101405.44;;;19.29;59.78
70009;BME280;59542;37.950;-122.338;2023-07-20T00:06:24;101401.88;;;19.45;60.54
70009;BME280;59542;37.950;-122.338;2023-07-20T00:08:56;101403.19;;;19.43;60.07
70009;BME280;59542;37.950;-122.338;2023-07-20T00:11:26;101389.56;;;19.21;60.87
70009;BME280;59542;37.950;-122.338;2023-07-20T00:13:53;101402.03;;;19.17;60.75
70009;BME280;59542;37.950;-122.338;2023-07-20T00:16:19;101399.81;;;18.63;62.61
70009;BME280;59542;37.950;-122.338;2023-07-20T00:18:45;101398.94;;;18.29;63.30
70009;BME280;59542;37.950;-122.338;2023-07-20T00:21:12;101401.25;;;18.37;63.80
70009;BME280;59542;37.950;-122.338;2023-07-20T00:23:38;101396.28;;;18.17;65.42
70009;BME280;59542;37.950;-122.338;2023-07-20T00:26:04;101388.53;;;17.81;66.99
70009;BME280;59542;37.950;-122.338;2023-07-20T00:28:30;101395.53;;;17.77;66.88
70009;BME280;59542;37.950;-122.338;2023-07-20T00:30:59;101388.44;;;17.76;66.75
70009;BME280;59542;37.950;-122.338;2023-07-20T00:33:25;101382.16;;;17.87;66.94
70009;BME280;59542;37.950;-122.338;2023-07-20T00:35:52;101381.53;;;17.97;67.07
70009;BME280;59542;37.950;-122.338;2023-07-20T00:38:18;101392.56;;;17.78;67.50
70009;BME280;59542;37.950;-122.338;2023-07-20T00:40:45;101385.97;;;17.74;67.59
70009;BME280;59542;37.950;-122.338;2023-07-20T00:43:11;101382.38;;;17.45;68.36
70009;BME280;59542;37.950;-122.338;2023-07-20T00:45:38;101365.34;;;17.21;69.51
70009;BME280;59542;37.950;-122.338;2023-07-20T00:48:05;101371.22;;;17.30;70.01
70009;BME280;59542;37.950;-122.338;2023-07-20T00:50:34;101368.75;;;17.40;69.43
70009;BME280;59542;37.950;-122.338;2023-07-20T00:53:02;101374.84;;;17.47;70.10
70009;BME280;59542;37.950;-122.338;2023-07-20T00:55:33;101364.25;;;17.46;69.98
70009;BME280;59542;37.950;-122.338;2023-07-20T00:58:00;101371.66;;;17.50;69.90
70009;BME280;59542;37.950;-122.338;2023-07-20T01:00:26;101362.13;;;17.48;70.18
70009;BME280;59542;37.950;-122.338;2023-07-20T01:02:53;101364.75;;;17.19;71.07
70009;BME280;59542;37.950;-122.338;2023-07-20T01:05:21;101375.81;;;17.29;71.09
70009;BME280;59542;37.950;-122.338;2023-07-20T01:08:12;101371.94;;;17.13;71.58
70009;BME280;59542;37.950;-122.338;2023-07-20T01:11:36;101365.38;;;16.74;72.77
70009;BME280;59542;37.950;-122.338;2023-07-20T01:13:55;101374.53;;;16.85;72.95
70009;BME280;59542;37.950;-122.338;2023-07-20T01:16:22;101361.97;;;17.02;72.87
70009;BME280;59542;37.950;-122.338;2023-07-20T01:18:48;101366.78;;;17.00;73.53
70009;BME280;59542;37.950;-122.338;2023-07-20T01:21:21;101368.78;;;17.05;72.87
70009;BME280;59542;37.950;-122.338;2023-07-20T01:32:16;101368.56;;;16.83;73.38
70009;BME280;59542;37.950;-122.338;2023-07-20T01:34:44;101378.75;;;16.81;74.30
70009;BME280;59542;37.950;-122.338;2023-07-20T01:37:11;101373.72;;;16.84;73.78
70009;BME280;59542;37.950;-122.338;2023-07-20T01:39:39;101379.38;;;16.95;73.52
70009;BME280;59542;37.950;-122.338;2023-07-20T01:42:05;101382.66;;;16.85;73.59
70009;BME280;59542;37.950;-122.338;2023-07-20T01:44:32;101385.31;;;16.61;74.29
70009;BME280;59542;37.950;-122.338;2023-07-20T01:46:58;101381.16;;;16.47;75.46
70009;BME280;59542;37.950;-122.338;2023-07-20T01:49:25;101378.25;;;16.19;76.64
70009;BME280;59542;37.950;-122.338;2023-07-20T01:51:51;101387.19;;;16.19;77.25
70009;BME280;59542;37.950;-122.338;2023-07-20T01:54:17;101385.31;;;16.20;77.67
70009;BME280;59542;37.950;-122.338;2023-07-20T01:56:43;101382.47;;;16.15;77.62
70009;BME280;59542;37.950;-122.338;2023-07-20T01:59:10;101381.66;;;15.84;79.13
70009;BME280;59542;37.950;-122.338;2023-07-20T02:01:36;101381.03;;;16.00;78.56
70009;BME280;59542;37.950;-122.338;2023-07-20T02:04:02;101378.13;;;15.83;79.12
70009;BME280;59542;37.950;-122.338;2023-07-20T02:06:29;101381.69;;;15.66;80.04
70009;BME280;59542;37.950;-122.338;2023-07-20T02:08:55;101375.59;;;15.34;82.21
70009;BME280;59542;37.950;-122.338;2023-07-20T02:11:21;101385.78;;;15.50;81.92
70009;BME280;59542;37.950;-122.338;2023-07-20T02:13:47;101381.78;;;15.52;81.87
70009;BME280;59542;37.950;-122.338;2023-07-20T02:16:14;101386.06;;;15.60;81.47
70009;BME280;59542;37.950;-122.338;2023-07-20T02:18:40;101380.66;;;15.42;81.68
70009;BME280;59542;37.950;-122.338;2023-07-20T02:21:06;101381.81;;;15.34;82.00
70009;BME280;59542;37.950;-122.338;2023-07-20T02:23:33;101384.72;;;15.32;82.46
70009;BME280;59542;37.950;-122.338;2023-07-20T02:25:59;101393.50;;;15.03;83.56
70009;BME280;59542;37.950;-122.338;2023-07-20T02:28:25;101388.88;;;15.10;83.31
70009;BME280;59542;37.950;-122.338;2023-07-20T02:30:51;101381.16;;;14.95;84.01
70009;BME280;59542;37.950;-122.338;2023-07-20T02:33:19;101378.84;;;14.74;85.40
70009;BME280;59542;37.950;-122.338;2023-07-20T02:35:46;101377.09;;;14.86;85.11
70009;BME280;59542;37.950;-122.338;2023-07-20T02:38:12;101378.28;;;14.65;86.04
70009;BME280;59542;37.950;-122.338;2023-07-20T02:40:39;101373.06;;;14.70;86.16
70009;BME280;59542;37.950;-122.338;2023-07-20T02:43:05;101373.28;;;14.44;87.42
70009;BME280;59542;37.950;-122.338;2023-07-20T02:45:31;101370.59;;;14.37;87.76
70009;BME280;59542;37.950;-122.338;2023-07-20T02:47:57;101374.16;;;14.31;88.55
70009;BME280;59542;37.950;-122.338;2023-07-20T02:50:24;101372.09;;;14.33;88.77
70009;BME280;59542;37.950;-122.338;2023-07-20T02:52:50;101373.16;;;14.25;89.08
70009;BME280;59542;37.950;-122.338;2023-07-20T02:55:16;101373.28;;;14.44;88.62
70009;BME280;59542;37.950;-122.338;2023-07-20T02:57:42;101373.88;;;14.46;88.75
70009;BME280;59542;37.950;-122.338;2023-07-20T03:00:09;101376.84;;;14.31;90.00
70009;BME280;59542;37.950;-122.338;2023-07-20T03:02:37;101373.97;;;14.33;88.96
70009;BME280;59542;37.950;-122.338;2023-07-20T03:05:03;101378.13;;;14.29;88.73
70009;BME280;59542;37.950;-122.338;2023-07-20T03:07:32;101383.13;;;14.25;88.75
70009;BME280;59542;37.950;-122.338;2023-07-20T03:09:59;101384.00;;;14.19;89.26
70009;BME280;59542;37.950;-122.338;2023-07-20T03:12:25;101395.22;;;14.09;90.24
70009;BME280;59542;37.950;-122.338;2023-07-20T03:14:52;101387.38;;;14.08;90.52
70009;BME280;59542;37.950;-122.338;2023-07-20T03:17:19;101391.69;;;14.09;89.90
70009;BME280;59542;37.950;-122.338;2023-07-20T03:19:46;101390.31;;;13.99;90.21
70009;BME280;59542;37.950;-122.338;2023-07-20T03:22:12;101380.75;;;14.04;90.51
70009;BME280;59542;37.950;-122.338;2023-07-20T03:24:38;101383.31;;;13.92;91.17
70009;BME280;59542;37.950;-122.338;2023-07-20T03:27:05;101384.31;;;13.97;91.10
70009;BME280;59542;37.950;-122.338;2023-07-20T03:29:32;101382.25;;;13.99;90.99
70009;BME280;59542;37.950;-122.338;2023-07-20T03:31:59;101385.28;;;14.10;90.35
70009;BME280;59542;37.950;-122.338;2023-07-20T03:34:25;101386.19;;;13.97;91.01
70009;BME280;59542;37.950;-122.338;2023-07-20T03:36:51;101383.78;;;13.76;92.28
70009;BME280;59542;37.950;-122.338;2023-07-20T03:39:18;101385.88;;;13.73;92.76
70009;BME280;59542;37.950;-122.338;2023-07-20T03:41:44;101392.28;;;13.79;93.44
70009;BME280;59542;37.950;-122.338;2023-07-20T03:44:10;101398.06;;;13.76;93.70
70009;BME280;59542;37.950;-122.338;2023-07-20T03:46:36;101409.28;;;13.73;94.34
70009;BME280;59542;37.950;-122.338;2023-07-20T03:49:03;101407.34;;;13.87;93.63
70009;BME280;59542;37.950;-122.338;2023-07-20T03:51:29;101413.97;;;13.84;92.66
70009;BME280;59542;37.950;-122.338;2023-07-20T03:53:55;101412.56;;;13.75;93.15
70009;BME280;59542;37.950;-122.338;2023-07-20T03:56:21;101414.03;;;13.71;93.64
70009;BME280;59542;37.950;-122.338;2023-07-20T03:58:48;101407.38;;;13.80;93.35
70009;BME280;59542;37.950;-122.338;2023-07-20T04:01:14;101411.91;;;13.86;93.34
70009;BME280;59542;37.950;-122.338;2023-07-20T04:03:42;101405.91;;;13.84;93.25
70009;BME280;59542;37.950;-122.338;2023-07-20T04:06:09;101417.72;;;13.77;93.48
70009;BME280;59542;37.950;-122.338;2023-07-20T04:08:36;101415.69;;;13.72;93.46
70009;BME280;59542;37.950;-122.338;2023-07-20T04:11:03;101421.28;;;13.64;93.95
70009;BME280;59542;37.950;-122.338;2023-07-20T04:13:30;101421.34;;;13.51;94.30
70009;BME280;59542;37.950;-122.338;2023-07-20T04:15:59;101429.81;;;13.54;94.56
70009;BME280;59542;37.950;-122.338;2023-07-20T04:18:25;101431.22;;;13.63;94.04
70009;BME280;59542;37.950;-122.338;2023-07-20T04:20:51;101437.03;;;13.54;93.82
70009;BME280;59542;37.950;-122.338;2023-07-20T04:23:18;101438.50;;;13.56;94.25
70009;BME280;59542;37.950;-122.338;2023-07-20T04:25:44;101440.34;;;13.49;95.16
70009;BME280;59542;37.950;-122.338;2023-07-20T04:28:10;101429.19;;;13.52;95.02
70009;BME280;59542;37.950;-122.338;2023-07-20T04:30:37;101443.06;;;13.56;95.31
70009;BME280;59542;37.950;-122.338;2023-07-20T04:33:05;101436.63;;;13.57;95.01
70009;BME280;59542;37.950;-122.338;2023-07-20T04:35:54;101443.88;;;13.56;95.24
70009;BME280;59542;37.950;-122.338;2023-07-20T04:38:21;101444.69;;;13.63;94.61
70009;BME280;59542;37.950;-122.338;2023-07-20T04:40:49;101449.03;;;13.58;94.35
70009;BME280;59542;37.950;-122.338;2023-07-20T04:43:16;101442.22;;;13.48;95.36
70009;BME280;59542;37.950;-122.338;2023-07-20T04:45:43;101450.50;;;13.54;95.29
70009;BME280;59542;37.950;-122.338;2023-07-20T04:48:11;101448.03;;;13.52;95.36
70009;BME280;59542;37.950;-122.338;2023-07-20T04:50:41;101448.03;;;13.45;95.68
70009;BME280;59542;37.950;-122.338;2023-07-20T04:53:14;101445.53;;;13.57;95.50
70009;BME280;59542;37.950;-122.338;2023-07-20T04:55:40;101444.25;;;13.60;95.47
70009;BME280;59542;37.950;-122.338;2023-07-20T04:58:16;101447.97;;;13.65;94.77
70009;BME280;59542;37.950;-122.338;2023-07-20T05:00:43;101443.22;;;13.67;94.95
70009;BME280;59542;37.950;-122.338;2023-07-20T05:03:09;101439.31;;;13.63;95.00
70009;BME280;59542;37.950;-122.338;2023-07-20T05:05:35;101444.69;;;13.63;94.99
70009;BME280;59542;37.950;-122.338;2023-07-20T05:08:04;101452.13;;;13.68;94.57
70009;BME280;59542;37.950;-122.338;2023-07-20T05:10:30;101443.44;;;13.72;94.26
70009;BME280;59542;37.950;-122.338;2023-07-20T05:12:56;101445.91;;;13.74;93.80
70009;BME280;59542;37.950;-122.338;2023-07-20T05:15:22;101444.03;;;13.74;93.84
70009;BME280;59542;37.950;-122.338;2023-07-20T05:17:49;101445.47;;;13.77;94.51
70009;BME280;59542;37.950;-122.338;2023-07-20T05:20:15;101449.38;;;13.81;93.52
70009;BME280;59542;37.950;-122.338;2023-07-20T05:22:42;101454.34;;;13.84;93.15
70009;BME280;59542;37.950;-122.338;2023-07-20T05:25:09;101449.81;;;13.78;93.19
70009;BME280;59542;37.950;-122.338;2023-07-20T05:27:37;101453.97;;;13.74;93.70
70009;BME280;59542;37.950;-122.338;2023-07-20T05:30:05;101452.94;;;13.68;94.20
70009;BME280;59542;37.950;-122.338;2023-07-20T05:32:33;101454.38;;;13.71;93.98
70009;BME280;59542;37.950;-122.338;2023-07-20T05:34:59;101460.00;;;13.63;94.40
70009;BME280;59542;37.950;-122.338;2023-07-20T05:37:26;101459.38;;;13.67;94.63
70009;BME280;59542;37.950;-122.338;2023-07-20T05:39:52;101458.94;;;13.70;94.02
70009;BME280;59542;37.950;-122.338;2023-07-20T05:42:18;101467.66;;;13.66;94.17
70009;BME280;59542;37.950;-122.338;2023-07-20T05:44:44;101460.00;;;13.63;94.65
70009;BME280;59542;37.950;-122.338;2023-07-20T05:47:13;101463.72;;;13.68;94.19
70009;BME280;59542;37.950;-122.338;2023-07-20T05:49:39;101465.13;;;13.71;94.15
70009;BME280;59542;37.950;-122.338;2023-07-20T05:52:05;101457.91;;;13.78;93.36
70009;BME280;59542;37.950;-122.338;2023-07-20T05:54:31;101457.91;;;13.78;93.15
70009;BME280;59542;37.950;-122.338;2023-07-20T05:56:58;101458.50;;;13.80;93.15
70009;BME280;59542;37.950;-122.338;2023-07-20T05:59:24;101463.06;;;13.80;93.07
70009;BME280;59542;37.950;-122.338;2023-07-20T06:01:51;101452.50;;;13.78;92.97
70009;BME280;59542;37.950;-122.338;2023-07-20T06:04:17;101451.09;;;13.69;92.88
70009;BME280;59542;37.950;-122.338;2023-07-20T06:06:43;101462.44;;;13.71;92.99
70009;BME280;59542;37.950;-122.338;2023-07-20T06:09:10;101461.44;;;13.65;93.46
70009;BME280;59542;37.950;-122.338;2023-07-20T06:11:40;101466.19;;;13.70;93.23
70009;BME280;59542;37.950;-122.338;2023-07-20T06:14:06;101451.28;;;13.74;93.29
70009;BME280;59542;37.950;-122.338;2023-07-20T06:16:33;101459.97;;;13.69;93.63
70009;BME280;59542;37.950;-122.338;2023-07-20T06:19:00;101458.50;;;13.80;93.40
70009;BME280;59542;37.950;-122.338;2023-07-20T06:21:27;101457.03;;;13.84;93.15
70009;BME280;59542;37.950;-122.338;2023-07-20T06:23:53;101453.75;;;13.76;93.55
70009;BME280;59542;37.950;-122.338;2023-07-20T06:26:19;101461.59;;;13.84;92.54
70009;BME280;59542;37.950;-122.338;2023-07-20T06:28:46;101456.22;;;13.84;92.42
70009;BME280;59542;37.950;-122.338;2023-07-20T06:31:12;101453.31;;;13.85;92.85
70009;BME280;59542;37.950;-122.338;2023-07-20T06:33:39;101465.72;;;13.86;93.12
70009;BME280;59542;37.950;-122.338;2023-07-20T06:36:05;101466.56;;;13.80;93.46
70009;BME280;59542;37.950;-122.338;2023-07-20T06:38:31;101471.91;;;13.87;92.81
70009;BME280;59542;37.950;-122.338;2023-07-20T06:40:57;101459.13;;;13.76;93.26
70009;BME280;59542;37.950;-122.338;2023-07-20T06:43:24;101454.59;;;13.69;93.99
70009;BME280;59542;37.950;-122.338;2023-07-20T06:45:54;101455.59;;;13.82;93.31
70009;BME280;59542;37.950;-122.338;2023-07-20T06:48:21;101457.22;;;13.89;92.97
70009;BME280;59542;37.950;-122.338;2023-07-20T06:50:47;101449.78;;;13.85;92.87
70009;BME280;59542;37.950;-122.338;2023-07-20T06:53:13;101440.03;;;13.90;92.39
70009;BME280;59542;37.950;-122.338;2023-07-20T06:55:42;101442.28;;;13.93;92.70
70009;BME280;59542;37.950;-122.338;2023-07-20T06:58:09;101452.91;;;13.88;92.85
70009;BME280;59542;37.950;-122.338;2023-07-20T07:00:35;101447.91;;;13.85;93.66
70009;BME280;59542;37.950;-122.338;2023-07-20T07:03:01;101453.06;;;13.93;93.42
70009;BME280;59542;37.950;-122.338;2023-07-20T07:05:28;101452.44;;;13.91;93.37
70009;BME280;59542;37.950;-122.338;2023-07-20T07:07:54;101463.22;;;13.91;93.21
70009;BME280;59542;37.950;-122.338;2023-07-20T07:10:20;101454.53;;;13.89;93.23
70009;BME280;59542;37.950;-122.338;2023-07-20T07:12:47;101452.03;;;13.88;93.12
70009;BME280;59542;37.950;-122.338;2023-07-20T07:15:13;101456.38;;;13.95;92.88
70009;BME280;59542;37.950;-122.338;2023-07-20T07:17:39;101459.63;;;14.04;91.93
70009;BME280;59542;37.950;-122.338;2023-07-20T07:20:06;101464.00;;;14.05;91.55
70009;BME280;59542;37.950;-122.338;2023-07-20T07:22:33;101460.75;;;13.90;92.47
70009;BME280;59542;37.950;-122.338;2023-07-20T07:24:59;101462.59;;;13.96;91.93
70009;BME280;59542;37.950;-122.338;2023-07-20T07:27:26;101464.47;;;13.89;92.69
70009;BME280;59542;37.950;-122.338;2023-07-20T07:29:52;101452.22;;;13.99;92.03
70009;BME280;59542;37.950;-122.338;2023-07-20T07:32:18;101453.44;;;14.04;92.22
70009;BME280;59542;37.950;-122.338;2023-07-20T07:34:44;101449.91;;;14.03;92.48
70009;BME280;59542;37.950;-122.338;2023-07-20T07:37:12;101452.81;;;14.02;92.71
70009;BME280;59542;37.950;-122.338;2023-07-20T07:39:39;101460.91;;;14.02;92.79
70009;BME280;59542;37.950;-122.338;2023-07-20T07:42:05;101449.28;;;14.08;91.85
70009;BME280;59542;37.950;-122.338;2023-07-20T07:44:32;101457.78;;;14.05;91.67
70009;BME280;59542;37.950;-122.338;2023-07-20T07:46:58;101462.31;;;14.04;91.38
70009;BME280;59542;37.950;-122.338;2023-07-20T07:49:24;101457.78;;;14.05;91.26
70009;BME280;59542;37.950;-122.338;2023-07-20T07:51:51;101462.13;;;14.06;91.54
70009;BME280;59542;37.950;-122.338;2023-07-20T07:54:17;101456.94;;;14.11;91.07
70009;BME280;59542;37.950;-122.338;2023-07-20T07:56:43;101462.31;;;14.11;90.79
70009;BME280;59542;37.950;-122.338;2023-07-20T07:59:10;101461.50;;;14.10;91.04
70009;BME280;59542;37.950;-122.338;2023-07-20T08:01:36;101462.75;;;14.08;91.31
70009;BME280;59542;37.950;-122.338;2023-07-20T08:04:03;101462.31;;;14.04;91.86
70009;BME280;59542;37.950;-122.338;2023-07-20T08:06:29;101463.16;;;14.05;91.67
70009;BME280;59542;37.950;-122.338;2023-07-20T08:08:57;101458.00;;;14.03;91.62
70009;BME280;59542;37.950;-122.338;2023-07-20T08:11:23;101455.25;;;14.10;91.51
70009;BME280;59542;37.950;-122.338;2023-07-20T08:13:50;101454.91;;;13.99;91.64
70009;BME280;59542;37.950;-122.338;2023-07-20T08:16:16;101444.56;;;13.96;91.63
70009;BME280;59542;37.950;-122.338;2023-07-20T08:18:43;101441.88;;;13.96;91.62
70009;BME280;59542;37.950;-122.338;2023-07-20T08:21:09;101441.94;;;13.83;92.40
70009;BME280;59542;37.950;-122.338;2023-07-20T08:23:36;101451.00;;;13.95;91.67
70009;BME280;59542;37.950;-122.338;2023-07-20T08:26:02;101452.03;;;13.94;91.26
70009;BME280;59542;37.950;-122.338;2023-07-20T08:28:29;101448.31;;;13.95;90.79
70009;BME280;59542;37.950;-122.338;2023-07-20T08:30:55;101450.81;;;13.90;91.45
70009;BME280;59542;37.950;-122.338;2023-07-20T08:33:22;101445.47;;;13.77;92.63
70009;BME280;59542;37.950;-122.338;2023-07-20T08:35:49;101439.25;;;13.77;92.86
70009;BME280;59542;37.950;-122.338;2023-07-20T08:38:15;101437.22;;;13.65;93.09
70009;BME280;59542;37.950;-122.338;2023-07-20T08:40:44;101433.28;;;13.68;93.38
70009;BME280;59542;37.950;-122.338;2023-07-20T08:43:11;101437.22;;;13.65;93.41
70009;BME280;59542;37.950;-122.338;2023-07-20T08:45:39;101433.31;;;13.55;94.07
70009;BME280;59542;37.950;-122.338;2023-07-20T08:48:07;101429.59;;;13.62;93.69
70009;BME280;59542;37.950;-122.338;2023-07-20T08:50:35;101428.13;;;13.60;94.03
70009;BME280;59542;37.950;-122.338;2023-07-20T08:53:02;101439.31;;;13.57;93.74
70009;BME280;59542;37.950;-122.338;2023-07-20T08:55:29;101423.19;;;13.57;93.96
70009;BME280;59542;37.950;-122.338;2023-07-20T08:57:57;101422.94;;;13.65;93.64
70009;BME280;59542;37.950;-122.338;2023-07-20T09:00:25;101426.06;;;13.62;94.03
70009;BME280;59542;37.950;-122.338;2023-07-20T09:02:56;101421.75;;;13.61;94.32
70009;BME280;59542;37.950;-122.338;2023-07-20T09:05:24;101423.56;;;13.67;94.21
70009;BME280;59542;37.950;-122.338;2023-07-20T09:07:51;101427.69;;;13.69;94.06
70009;BME280;59542;37.950;-122.338;2023-07-20T09:10:21;101417.97;;;13.68;93.83
70009;BME280;59542;37.950;-122.338;2023-07-20T09:12:48;101422.09;;;13.71;93.90
70009;BME280;59542;37.950;-122.338;2023-07-20T09:15:15;101419.19;;;13.79;93.41
70009;BME280;59542;37.950;-122.338;2023-07-20T09:17:50;101427.44;;;13.84;93.08
70009;BME280;59542;37.950;-122.338;2023-07-20T09:20:17;101422.91;;;13.78;93.02
70009;BME280;59542;37.950;-122.338;2023-07-20T09:22:45;101425.59;;;13.78;93.55
70009;BME280;59542;37.950;-122.338;2023-07-20T09:25:16;101427.47;;;13.78;93.33
70009;BME280;59542;37.950;-122.338;2023-07-20T09:27:45;101427.22;;;13.86;92.60
70009;BME280;59542;37.950;-122.338;2023-07-20T09:30:13;101423.06;;;13.90;92.23
70009;BME280;59542;37.950;-122.338;2023-07-20T09:32:45;101427.19;;;13.92;92.36
70009;BME280;59542;37.950;-122.338;2023-07-20T09:35:15;101426.13;;;13.93;92.38
70009;BME280;59542;37.950;-122.338;2023-07-20T09:38:01;101424.66;;;14.04;92.05
70009;BME280;59542;37.950;-122.338;2023-07-20T09:40:28;101423.84;;;13.97;91.99
70009;BME280;59542;37.950;-122.338;2023-07-20T09:42:55;101416.03;;;13.89;92.73
70009;BME280;59542;37.950;-122.338;2023-07-20T09:45:49;101425.16;;;13.81;93.25
70009;BME280;59542;37.950;-122.338;2023-07-20T09:48:16;101426.22;;;13.80;93.07
70009;BME280;59542;37.950;-122.338;2023-07-20T09:50:49;101423.09;;;13.83;92.65
70009;BME280;59542;37.950;-122.338;2023-07-20T09:53:17;101422.84;;;13.91;91.75
70009;BME280;59542;37.950;-122.338;2023-07-20T09:55:47;101425.97;;;13.88;91.87
70009;BME280;59542;37.950;-122.338;2023-07-20T09:58:15;101422.63;;;13.99;91.49
70009;BME280;59542;37.950;-122.338;2023-07-20T10:00:43;101419.75;;;13.94;91.65
70009;BME280;59542;37.950;-122.338;2023-07-20T10:03:16;101418.06;;;13.93;91.05
70009;BME280;59542;37.950;-122.338;2023-07-20T10:05:59;101417.66;;;13.96;91.17
70009;BME280;59542;37.950;-122.338;2023-07-20T10:08:29;101400.22;;;13.99;90.87
70009;BME280;59542;37.950;-122.338;2023-07-20T10:10:59;101406.09;;;13.89;91.93
70009;BME280;59542;37.950;-122.338;2023-07-20T10:13:28;101407.72;;;13.97;91.46
70009;BME280;59542;37.950;-122.338;2023-07-20T10:16:01;101416.41;;;13.92;91.75
70009;BME280;59542;37.950;-122.338;2023-07-20T10:18:47;101416.00;;;13.95;92.02
70009;BME280;59542;37.950;-122.338;2023-07-20T10:21:17;101408.16;;;13.94;92.33
70009;BME280;59542;37.950;-122.338;2023-07-20T10:23:45;101407.06;;;14.02;92.17
70009;BME280;59542;37.950;-122.338;2023-07-20T10:26:13;101410.59;;;14.02;91.75
70009;BME280;59542;37.950;-122.338;2023-07-20T10:28:40;101411.59;;;14.08;91.77
70009;BME280;59542;37.950;-122.338;2023-07-20T10:31:08;101415.56;;;14.05;91.76
70009;BME280;59542;37.950;-122.338;2023-07-20T10:33:37;101418.25;;;14.05;91.90
70009;BME280;59542;37.950;-122.338;2023-07-20T10:36:05;101408.97;;;13.94;92.23
70009;BME280;59542;37.950;-122.338;2023-07-20T10:41:33;101413.06;;;14.04;92.12
70009;BME280;59542;37.950;-122.338;2023-07-20T10:44:07;101408.91;;;14.08;91.68
70009;BME280;59542;37.950;-122.338;2023-07-20T10:49:06;101397.94;;;14.03;91.62
70009;BME280;59542;37.950;-122.338;2023-07-20T10:51:44;101401.06;;;14.06;90.92
70009;BME280;59542;37.950;-122.338;2023-07-20T10:56:46;101401.91;;;13.93;90.99
70009;BME280;59542;37.950;-122.338;2023-07-20T10:59:19;101409.56;;;13.96;91.27
70009;BME280;59542;37.950;-122.338;2023-07-20T11:01:47;101405.03;;;13.97;91.01
70009;BME280;59542;37.950;-122.338;2023-07-20T11:04:17;101401.09;;;13.93;91.41
70009;BME280;59542;37.950;-122.338;2023-07-20T11:06:48;101400.31;;;13.86;92.01
70009;BME280;59542;37.950;-122.338;2023-07-20T11:09:22;101404.66;;;13.87;92.48
70009;BME280;59542;37.950;-122.338;2023-07-20T11:12:12;101401.09;;;13.99;92.21
70009;BME280;59542;37.950;-122.338;2023-07-20T11:14:56;101407.56;;;13.85;92.82
70009;BME280;59542;37.950;-122.338;2023-07-20T11:17:31;101399.22;;;13.93;92.46
70009;BME280;59542;37.950;-122.338;2023-07-20T11:19:59;101412.69;;;13.93;92.15
70009;BME280;59542;37.950;-122.338;2023-07-20T11:22:31;101402.78;;;13.87;92.31
70009;BME280;59542;37.950;-122.338;2023-07-20T11:24:58;101412.94;;;13.85;92.74
70009;BME280;59542;37.950;-122.338;2023-07-20T11:27:24;101413.13;;;13.90;92.56
70009;BME280;59542;37.950;-122.338;2023-07-20T11:29:51;101402.59;;;13.89;92.32
70009;BME280;59542;37.950;-122.338;2023-07-20T11:32:21;101411.06;;;13.86;92.40
70009;BME280;59542;37.950;-122.338;2023-07-20T11:34:48;101408.59;;;13.84;92.50
70009;BME280;59542;37.950;-122.338;2023-07-20T11:37:15;101408.16;;;13.87;92.28
70009;BME280;59542;37.950;-122.338;2023-07-20T11:39:41;101405.66;;;13.92;92.16
70009;BME280;59542;37.950;-122.338;2023-07-20T11:42:08;101403.16;;;13.97;91.98
70009;BME280;59542;37.950;-122.338;2023-07-20T11:44:35;101409.19;;;13.86;92.61
70009;BME280;59542;37.950;-122.338;2023-07-20T11:47:09;101410.41;;;13.97;92.13
70009;BME280;59542;37.950;-122.338;2023-07-20T11:49:36;101410.25;;;13.85;92.70
70009;BME280;59542;37.950;-122.338;2023-07-20T11:52:07;101411.06;;;13.86;92.82
70009;BME280;59542;37.950;-122.338;2023-07-20T11:54:35;101404.00;;;13.91;92.48
70009;BME280;59542;37.950;-122.338;2023-07-20T11:57:02;101410.81;;;14.00;91.92
70009;BME280;59542;37.950;-122.338;2023-07-20T11:59:28;101406.22;;;14.08;91.40
70009;BME280;59542;37.950;-122.338;2023-07-20T12:01:55;101401.84;;;14.13;91.04
70009;BME280;59542;37.950;-122.338;2023-07-20T12:04:23;101412.28;;;13.96;91.26
70009;BME280;59542;37.950;-122.338;2023-07-20T12:06:49;101413.25;;;14.09;91.29
70009;BME280;59542;37.950;-122.338;2023-07-20T12:09:16;101405.81;;;14.04;91.56
70009;BME280;59542;37.950;-122.338;2023-07-20T12:11:44;101404.34;;;14.08;91.63
70009;BME280;59542;37.950;-122.338;2023-07-20T12:14:11;101403.78;;;13.99;92.22
70009;BME280;59542;37.950;-122.338;2023-07-20T12:16:38;101410.81;;;14.00;91.94
70009;BME280;59542;37.950;-122.338;2023-07-20T12:19:11;101415.38;;;14.00;91.53
70009;BME280;59542;37.950;-122.338;2023-07-20T12:21:42;101414.69;;;14.05;91.85
70009;BME280;59542;37.950;-122.338;2023-07-20T12:24:10;101418.44;;;14.10;91.35
70009;BME280;59542;37.950;-122.338;2023-07-20T12:26:37;101419.03;;;14.12;91.27
70009;BME280;59542;37.950;-122.338;2023-07-20T12:29:03;101424.66;;;14.04;91.36
70009;BME280;59542;37.950;-122.338;2023-07-20T12:31:30;101435.44;;;13.97;91.85
70009;BME280;59542;37.950;-122.338;2023-07-20T12:33:57;101437.28;;;14.10;91.44
70009;BME280;59542;37.950;-122.338;2023-07-20T12:36:25;101437.84;;;14.19;91.02
70009;BME280;59542;37.950;-122.338;2023-07-20T12:38:51;101438.31;;;14.03;91.48
70009;BME280;59542;37.950;-122.338;2023-07-20T12:41:17;101439.75;;;14.12;91.17